createdAt,value
2019-02-15T00:00:47.484Z,48.27
2019-02-15T00:03:16.320Z,48.14
2019-02-15T00:05:45.093Z,48.58
2019-02-15T00:08:13.832Z,48.46
2019-02-15T00:10:42.686Z,48.38
2019-02-15T00:13:13.586Z,48.38
2019-02-15T00:15:41.149Z,48.18
2019-02-15T00:18:17.170Z,48.38
2019-02-15T00:20:56.037Z,48.79
2019-02-15T00:23:24.776Z,48.69
2019-02-15T00:25:53.729Z,48.64
2019-02-15T00:28:22.616Z,48.63
2019-02-15T00:30:51.381Z,48.50
2019-02-15T00:33:20.194Z,49.03
2019-02-15T00:35:48.958Z,48.68
2019-02-15T00:38:17.773Z,48.76
2019-02-15T00:40:46.543Z,49.02
2019-02-15T00:43:22.082Z,48.91
2019-02-15T00:45:53.273Z,48.91
2019-02-15T00:48:22.384Z,48.96
2019-02-15T00:51:00.183Z,49.20
2019-02-15T00:53:39.828Z,49.33
2019-02-15T00:56:19.847Z,49.22
2019-02-15T00:59:13.928Z,48.86
2019-02-15T01:02:07.587Z,48.68
2019-02-15T01:04:54.297Z,48.85
2019-02-15T01:07:40.492Z,48.53
2019-02-15T01:10:40.309Z,48.40
2019-02-15T01:13:12.048Z,48.28
2019-02-15T01:15:40.877Z,48.06
2019-02-15T01:18:09.661Z,47.90
2019-02-15T01:20:38.423Z,47.97
2019-02-15T01:23:07.175Z,47.97
2019-02-15T01:25:42.780Z,47.92
2019-02-15T01:28:17.613Z,47.88
2019-02-15T01:31:11.143Z,48.00
2019-02-15T01:33:57.709Z,48.00
2019-02-15T01:36:48.250Z,47.89
2019-02-15T01:39:34.130Z,47.81
2019-02-15T01:42:20.679Z,47.82
2019-02-15T01:44:54.076Z,47.81
2019-02-15T01:47:26.486Z,47.73
2019-02-15T01:49:55.301Z,47.75
2019-02-15T01:52:24.143Z,47.73
2019-02-15T01:54:52.962Z,47.69
2019-02-15T01:57:21.752Z,47.63
2019-02-15T01:59:50.561Z,47.59
2019-02-15T02:02:19.852Z,47.53
2019-02-15T02:04:48.591Z,47.67
2019-02-15T02:07:17.368Z,47.48
2019-02-15T02:09:46.108Z,47.46
2019-02-15T02:12:14.935Z,47.50
2019-02-15T02:14:44.181Z,47.39
2019-02-15T02:17:13.049Z,47.36
2019-02-15T02:19:42.279Z,47.40
2019-02-15T02:22:11.121Z,47.31
2019-02-15T02:24:39.864Z,47.24
2019-02-15T02:27:08.634Z,47.19
2019-02-15T02:29:37.367Z,47.24
2019-02-15T02:32:06.224Z,47.27
2019-02-15T02:34:35.140Z,47.20
2019-02-15T02:37:04.279Z,47.20
2019-02-15T02:39:33.132Z,47.07
2019-02-15T02:42:01.899Z,47.05
2019-02-15T02:44:31.146Z,47.05
2019-02-15T02:46:59.907Z,46.99
2019-02-15T02:49:28.648Z,46.98
2019-02-15T02:51:57.412Z,46.99
2019-02-15T02:54:26.301Z,46.83
2019-02-15T02:56:55.062Z,46.99
2019-02-15T02:59:23.800Z,46.90
2019-02-15T03:01:52.563Z,46.92
2019-02-15T03:04:21.375Z,46.92
2019-02-15T03:06:50.206Z,46.79
2019-02-15T03:09:18.981Z,46.86
2019-02-15T03:11:47.746Z,46.84
2019-02-15T03:14:16.495Z,46.85
2019-02-15T03:16:45.300Z,46.77
2019-02-15T03:19:14.065Z,46.76
2019-02-15T03:21:42.896Z,46.59
2019-02-15T03:24:11.709Z,46.65
2019-02-15T03:26:40.483Z,46.52
2019-02-15T03:29:09.216Z,46.66
2019-02-15T03:31:37.998Z,46.71
2019-02-15T03:34:06.778Z,46.68
2019-02-15T03:36:52.822Z,46.67
2019-02-15T03:39:33.170Z,46.80
2019-02-15T03:42:01.965Z,46.69
2019-02-15T03:44:30.706Z,46.52
2019-02-15T03:46:59.538Z,46.52
2019-02-15T03:49:28.278Z,46.47
2019-02-15T03:51:57.042Z,46.40
2019-02-15T03:54:25.845Z,46.41
2019-02-15T03:56:54.626Z,46.44
2019-02-15T03:59:23.360Z,46.42
2019-02-15T04:01:52.169Z,46.37
2019-02-15T04:04:20.937Z,46.39
2019-02-15T04:06:49.673Z,46.49
2019-02-15T04:09:37.726Z,46.53
2019-02-15T04:12:06.505Z,46.45
2019-02-15T04:14:35.335Z,46.34
2019-02-15T04:17:04.085Z,46.32
2019-02-15T04:19:32.929Z,46.18
2019-02-15T04:22:01.669Z,46.18
2019-02-15T04:24:30.508Z,46.23
2019-02-15T04:26:59.242Z,46.26
2019-02-15T04:29:28.013Z,46.15
2019-02-15T04:31:56.820Z,46.13
2019-02-15T04:34:25.585Z,46.05
2019-02-15T04:36:54.316Z,46.02
2019-02-15T04:39:23.146Z,46.13
2019-02-15T04:41:51.883Z,46.22
2019-02-15T04:44:20.727Z,46.20
2019-02-15T04:46:50.171Z,46.02
2019-02-15T04:49:19.010Z,45.88
2019-02-15T04:51:47.813Z,45.89
2019-02-15T04:54:16.653Z,45.98
2019-02-15T04:56:45.473Z,45.96
2019-02-15T04:59:14.311Z,45.95
2019-02-15T05:01:43.135Z,45.91
2019-02-15T05:04:11.905Z,45.91
2019-02-15T05:06:40.647Z,45.93
2019-02-15T05:09:09.420Z,45.92
2019-02-15T05:11:38.545Z,45.91
2019-02-15T05:14:07.390Z,45.96
2019-02-15T05:16:36.165Z,46.01
2019-02-15T05:19:05.008Z,45.94
2019-02-15T05:21:33.820Z,45.91
2019-02-15T05:24:02.647Z,45.97
2019-02-15T05:26:31.398Z,45.93
2019-02-15T05:29:00.169Z,46.03
2019-02-15T05:31:28.907Z,46.10
2019-02-15T05:33:57.755Z,45.95
2019-02-15T05:36:26.553Z,45.96
2019-02-15T05:38:55.344Z,46.00
2019-02-15T05:41:24.086Z,45.94
2019-02-15T05:43:52.849Z,45.84
2019-02-15T05:46:21.597Z,45.92
2019-02-15T05:48:50.374Z,45.84
2019-02-15T05:51:19.114Z,45.79
2019-02-15T05:53:47.874Z,45.76
2019-02-15T05:56:35.898Z,45.72
2019-02-15T05:59:04.753Z,45.78
2019-02-15T06:01:33.481Z,45.84
2019-02-15T06:04:02.312Z,45.84
2019-02-15T06:06:31.053Z,45.77
2019-02-15T06:08:59.818Z,45.68
2019-02-15T06:11:28.635Z,45.59
2019-02-15T06:13:57.429Z,45.57
2019-02-15T06:16:26.230Z,45.55
2019-02-15T06:18:54.974Z,45.58
2019-02-15T06:21:23.857Z,45.58
2019-02-15T06:23:52.773Z,45.52
2019-02-15T06:26:21.905Z,45.50
2019-02-15T06:28:51.736Z,45.45
2019-02-15T06:31:20.575Z,45.52
2019-02-15T06:33:49.393Z,45.58
2019-02-15T06:36:18.315Z,45.54
2019-02-15T06:38:47.072Z,45.49
2019-02-15T06:41:15.919Z,44.97
2019-02-15T06:43:44.729Z,45.43
2019-02-15T06:46:13.572Z,45.36
2019-02-15T06:48:42.313Z,45.28
2019-02-15T06:51:11.093Z,45.40
2019-02-15T06:53:39.825Z,45.59
2019-02-15T06:56:08.588Z,45.57
2019-02-15T06:58:45.591Z,45.61
2019-02-15T07:01:34.493Z,45.74
2019-02-15T07:04:07.563Z,45.71
2019-02-15T07:06:36.335Z,45.86
2019-02-15T07:09:05.556Z,45.66
2019-02-15T07:11:34.323Z,45.57
2019-02-15T07:14:03.061Z,45.63
2019-02-15T07:16:31.943Z,45.63
2019-02-15T07:19:00.675Z,45.46
2019-02-15T07:21:29.474Z,45.39
2019-02-15T07:24:01.305Z,45.20
2019-02-15T07:26:30.096Z,45.11
2019-02-15T07:28:58.839Z,44.92
2019-02-15T07:31:27.607Z,44.80
2019-02-15T07:33:56.349Z,44.76
2019-02-15T07:36:25.125Z,44.76
2019-02-15T07:38:53.889Z,44.65
2019-02-15T07:41:22.914Z,44.54
2019-02-15T07:43:51.642Z,44.49
2019-02-15T07:46:20.414Z,44.46
2019-02-15T07:48:49.146Z,44.42
2019-02-15T07:51:17.932Z,44.34
2019-02-15T07:53:46.712Z,44.31
2019-02-15T07:56:15.479Z,44.39
2019-02-15T07:58:44.292Z,44.47
2019-02-15T08:01:13.063Z,44.31
2019-02-15T08:03:41.813Z,44.18
2019-02-15T08:06:30.183Z,44.10
2019-02-15T08:08:59.231Z,44.08
2019-02-15T08:11:28.035Z,44.02
2019-02-15T08:13:56.916Z,43.95
2019-02-15T08:16:25.702Z,43.81
2019-02-15T08:18:54.442Z,43.78
2019-02-15T08:21:23.227Z,43.64
2019-02-15T08:23:52.227Z,43.64
2019-02-15T08:26:21.008Z,43.63
2019-02-15T08:28:49.822Z,43.45
2019-02-15T08:31:18.674Z,43.38
2019-02-15T08:33:47.436Z,43.33
2019-02-15T08:36:16.274Z,43.27
2019-02-15T08:38:45.090Z,43.08
2019-02-15T08:41:14.016Z,43.02
2019-02-15T08:43:42.871Z,43.18
2019-02-15T08:46:11.697Z,43.02
2019-02-15T08:48:46.198Z,42.88
2019-02-15T08:51:11.279Z,42.73
2019-02-15T08:53:40.042Z,42.64
2019-02-15T08:56:08.859Z,42.60
2019-02-15T08:58:38.939Z,42.54
2019-02-15T09:01:07.764Z,42.41
2019-02-15T09:03:36.556Z,42.30
2019-02-15T09:06:05.302Z,42.23
2019-02-15T09:08:34.166Z,42.14
2019-02-15T09:11:02.930Z,42.01
2019-02-15T09:13:31.844Z,42.24
2019-02-15T09:16:09.822Z,42.13
2019-02-15T09:18:31.309Z,42.18
2019-02-15T09:21:00.215Z,42.23
2019-02-15T09:23:29.057Z,42.14
2019-02-15T09:25:57.813Z,41.97
2019-02-15T09:28:44.144Z,41.95
2019-02-15T09:31:12.973Z,41.88
2019-02-15T09:33:41.845Z,41.93
2019-02-15T09:36:10.600Z,41.89
2019-02-15T09:38:39.379Z,41.81
2019-02-15T09:41:08.124Z,41.77
2019-02-15T09:43:36.894Z,41.79
2019-02-15T09:46:05.728Z,41.76
2019-02-15T09:48:34.516Z,41.80
2019-02-15T09:51:03.352Z,41.71
2019-02-15T09:53:32.271Z,41.61
2019-02-15T09:56:01.177Z,41.56
2019-02-15T09:58:30.227Z,41.58
2019-02-15T10:00:59.073Z,41.53
2019-02-15T10:03:27.970Z,41.55
2019-02-15T10:05:56.730Z,41.52
2019-02-15T10:08:25.646Z,41.48
2019-02-15T10:10:54.417Z,41.47
2019-02-15T10:13:23.261Z,41.49
2019-02-15T10:15:52.082Z,41.54
2019-02-15T10:18:20.896Z,41.54
2019-02-15T10:20:49.730Z,41.49
2019-02-15T10:23:18.583Z,41.53
2019-02-15T10:25:47.347Z,41.51
2019-02-15T10:28:16.116Z,41.52
2019-02-15T10:30:44.975Z,41.47
2019-02-15T10:33:13.715Z,41.46
2019-02-15T10:35:42.538Z,41.41
2019-02-15T10:38:11.298Z,41.41
2019-02-15T10:40:40.089Z,41.34
2019-02-15T10:43:08.824Z,41.31
2019-02-15T10:45:37.829Z,41.34
2019-02-15T10:48:06.585Z,41.27
2019-02-15T10:50:35.346Z,41.31
2019-02-15T10:53:04.118Z,41.25
2019-02-15T10:55:32.958Z,41.21
2019-02-15T10:58:01.722Z,41.17
2019-02-15T11:00:30.489Z,41.19
2019-02-15T11:02:59.296Z,41.24
2019-02-15T11:05:28.076Z,41.34
2019-02-15T11:07:56.810Z,41.33
2019-02-15T11:10:25.572Z,41.42
2019-02-15T11:12:54.307Z,41.46
2019-02-15T11:15:23.114Z,41.54
2019-02-15T11:17:51.879Z,41.59
2019-02-15T11:20:20.716Z,41.57
2019-02-15T11:22:49.457Z,41.69
2019-02-15T11:25:18.230Z,41.78
2019-02-15T11:27:47.049Z,41.86
2019-02-15T11:30:15.892Z,41.92
2019-02-15T11:32:44.638Z,41.95
2019-02-15T11:35:13.408Z,41.92
2019-02-15T11:37:42.221Z,42.10
2019-02-15T11:40:12.428Z,42.25
2019-02-15T11:42:41.289Z,42.36
2019-02-15T11:45:11.154Z,42.36
2019-02-15T11:47:39.907Z,42.51
2019-02-15T11:50:10.299Z,42.49
2019-02-15T11:52:38.538Z,42.55
2019-02-15T11:55:07.794Z,42.58
2019-02-15T11:57:36.601Z,42.73
2019-02-15T12:00:13.830Z,42.76
2019-02-15T12:02:36.954Z,42.82
2019-02-15T12:05:06.856Z,42.81
2019-02-15T12:07:35.578Z,42.89
2019-02-15T12:10:04.591Z,42.93
2019-02-15T12:12:33.342Z,42.91
2019-02-15T12:15:02.133Z,42.87
2019-02-15T12:17:30.907Z,42.79
2019-02-15T12:19:59.686Z,42.96
2019-02-15T12:22:28.744Z,42.87
2019-02-15T12:24:57.605Z,42.99
2019-02-15T12:27:26.987Z,43.06
2019-02-15T12:29:55.837Z,43.04
2019-02-15T12:32:24.721Z,43.13
2019-02-15T12:34:53.486Z,43.06
2019-02-15T12:37:22.231Z,42.89
2019-02-15T12:39:51.001Z,42.99
2019-02-15T12:42:19.758Z,42.91
2019-02-15T12:44:48.534Z,42.92
2019-02-15T12:47:17.311Z,42.99
2019-02-15T12:49:46.150Z,43.00
2019-02-15T12:52:14.961Z,43.00
2019-02-15T12:54:43.810Z,43.03
2019-02-15T12:57:12.620Z,42.90
2019-02-15T12:59:41.393Z,42.94
2019-02-15T13:02:10.145Z,42.66
2019-02-15T13:04:38.934Z,42.54
2019-02-15T13:07:07.680Z,42.72
2019-02-15T13:09:36.448Z,42.77
2019-02-15T13:12:05.268Z,42.87
2019-02-15T13:14:34.024Z,42.84
2019-02-15T13:17:02.812Z,42.94
2019-02-15T13:19:31.700Z,43.08
2019-02-15T13:22:00.533Z,43.18
2019-02-15T13:24:29.340Z,43.10
2019-02-15T13:26:58.244Z,43.20
2019-02-15T13:29:27.080Z,43.05
2019-02-15T13:31:56.028Z,43.31
2019-02-15T13:34:24.781Z,43.42
2019-02-15T13:36:53.620Z,43.53
2019-02-15T13:39:22.436Z,43.64
2019-02-15T13:41:51.278Z,43.69
2019-02-15T13:44:20.034Z,43.52
2019-02-15T13:46:48.807Z,43.63
2019-02-15T13:49:17.621Z,43.71
2019-02-15T13:51:46.398Z,43.71
2019-02-15T13:54:15.138Z,43.75
2019-02-15T13:56:43.974Z,43.71
2019-02-15T13:59:33.585Z,43.70
2019-02-15T14:02:02.377Z,43.66
2019-02-15T14:04:31.467Z,43.59
2019-02-15T14:07:00.238Z,43.59
2019-02-15T14:09:28.984Z,43.42
2019-02-15T14:11:57.769Z,43.23
2019-02-15T14:14:26.520Z,43.30
2019-02-15T14:16:55.337Z,43.31
2019-02-15T14:19:24.084Z,43.19
2019-02-15T14:21:52.857Z,43.18
2019-02-15T14:24:21.592Z,43.18
2019-02-15T14:26:50.447Z,43.24
2019-02-15T14:29:19.181Z,43.34
2019-02-15T14:31:47.975Z,43.11
2019-02-15T14:34:16.765Z,43.18
2019-02-15T14:36:45.739Z,43.20
2019-02-15T14:39:14.563Z,43.29
2019-02-15T14:41:43.411Z,43.27
2019-02-15T14:44:12.149Z,43.14
2019-02-15T14:46:40.985Z,43.12
2019-02-15T14:49:09.821Z,43.06
2019-02-15T14:51:38.711Z,43.06
2019-02-15T14:54:07.529Z,42.95
2019-02-15T14:56:41.854Z,42.85
2019-02-15T14:59:10.609Z,42.70
2019-02-15T15:01:39.369Z,42.68
2019-02-15T15:04:08.126Z,42.52
2019-02-15T15:06:36.909Z,42.35
2019-02-15T15:09:06.410Z,42.24
2019-02-15T15:11:35.169Z,41.99
2019-02-15T15:14:04.066Z,41.73
2019-02-15T15:16:32.851Z,41.48
2019-02-15T15:19:01.607Z,41.29
2019-02-15T15:21:30.385Z,41.05
2019-02-15T15:23:59.328Z,40.86
2019-02-15T15:26:28.111Z,40.56
2019-02-15T15:28:56.859Z,40.27
2019-02-15T15:31:25.691Z,40.14
2019-02-15T15:33:54.449Z,39.90
2019-02-15T15:36:23.239Z,40.12
2019-02-15T15:38:51.984Z,40.40
2019-02-15T15:41:20.749Z,40.81
2019-02-15T15:43:49.507Z,41.33
2019-02-15T15:46:18.502Z,41.67
2019-02-15T15:48:47.238Z,42.02
2019-02-15T15:51:16.171Z,42.28
2019-02-15T15:53:45.029Z,42.44
2019-02-15T15:56:13.862Z,42.66
2019-02-15T15:58:42.681Z,42.81
2019-02-15T16:01:11.538Z,42.97
2019-02-15T16:03:40.275Z,43.18
2019-02-15T16:06:09.025Z,43.35
2019-02-15T16:08:37.797Z,43.48
2019-02-15T16:11:06.619Z,43.66
2019-02-15T16:13:36.365Z,43.79
2019-02-15T16:16:05.135Z,43.84
2019-02-15T16:18:35.166Z,43.99
2019-02-15T16:21:04.061Z,44.17
2019-02-15T16:23:32.923Z,44.28
2019-02-15T16:26:01.671Z,44.39
2019-02-15T16:28:30.505Z,44.51
2019-02-15T16:30:59.345Z,44.63
2019-02-15T16:33:28.226Z,44.69
2019-02-15T16:35:56.991Z,44.82
2019-02-15T16:38:25.826Z,44.91
2019-02-15T16:40:59.793Z,45.02
2019-02-15T16:43:28.662Z,45.09
2019-02-15T16:45:57.413Z,45.16
2019-02-15T16:48:26.316Z,45.26
2019-02-15T16:50:55.064Z,45.33
2019-02-15T16:53:23.831Z,45.43
2019-02-15T16:55:52.651Z,45.51
2019-02-15T16:58:21.409Z,45.61
2019-02-15T17:00:50.231Z,45.71
2019-02-15T17:03:19.065Z,45.80
2019-02-15T17:05:47.894Z,45.86
2019-02-15T17:08:16.667Z,45.87
2019-02-15T17:10:45.426Z,45.93
2019-02-15T17:13:14.265Z,46.01
2019-02-15T17:15:43.016Z,46.04
2019-02-15T17:18:11.871Z,46.08
2019-02-15T17:20:40.754Z,46.14
2019-02-15T17:23:09.557Z,46.17
2019-02-15T17:25:38.298Z,46.19
2019-02-15T17:28:07.076Z,46.22
2019-02-15T17:30:35.824Z,46.24
2019-02-15T17:33:04.593Z,46.34
2019-02-15T17:35:33.336Z,46.39
2019-02-15T17:38:02.183Z,46.45
2019-02-15T17:40:31.076Z,46.48
2019-02-15T17:43:00.013Z,46.50
2019-02-15T17:45:28.837Z,46.49
2019-02-15T17:47:57.651Z,46.48
2019-02-15T17:50:26.403Z,46.58
2019-02-15T17:52:55.255Z,46.63
2019-02-15T17:55:24.073Z,46.62
2019-02-15T17:57:52.843Z,46.66
2019-02-15T18:00:26.031Z,46.70
2019-02-15T18:02:54.683Z,46.63
2019-02-15T18:05:23.429Z,46.63
2019-02-15T18:07:52.276Z,46.66
2019-02-15T18:10:21.045Z,46.74
2019-02-15T18:12:49.825Z,46.79
2019-02-15T18:15:18.613Z,46.77
2019-02-15T18:17:47.407Z,46.82
2019-02-15T18:20:16.452Z,46.86
2019-02-15T18:22:45.239Z,46.86
2019-02-15T18:25:13.977Z,46.82
2019-02-15T18:27:42.748Z,46.93
2019-02-15T18:30:30.913Z,47.03
2019-02-15T18:32:59.674Z,47.09
2019-02-15T18:35:28.426Z,47.06
2019-02-15T18:37:57.201Z,47.06
2019-02-15T18:40:26.014Z,47.04
2019-02-15T18:42:54.863Z,47.03
2019-02-15T18:45:23.979Z,47.09
2019-02-15T18:47:52.748Z,47.15
2019-02-15T18:50:21.481Z,47.11
2019-02-15T18:52:50.357Z,47.10
2019-02-15T18:55:19.089Z,47.14
2019-02-15T18:57:48.042Z,47.16
2019-02-15T19:00:17.024Z,47.15
2019-02-15T19:02:45.977Z,47.13
2019-02-15T19:05:14.852Z,47.21
2019-02-15T19:07:43.664Z,47.18
2019-02-15T19:10:14.627Z,47.15
2019-02-15T19:12:43.488Z,47.22
2019-02-15T19:15:13.249Z,47.26
2019-02-15T19:17:42.208Z,47.20
2019-02-15T19:20:11.567Z,47.28
2019-02-15T19:22:40.406Z,47.22
2019-02-15T19:25:10.812Z,47.23
2019-02-15T19:27:38.941Z,47.30
2019-02-15T19:30:13.247Z,47.31
2019-02-15T19:32:44.663Z,47.28
2019-02-15T19:35:13.540Z,47.38
2019-02-15T19:37:42.447Z,47.49
2019-02-15T19:40:18.320Z,47.47
2019-02-15T19:42:48.887Z,47.48
2019-02-15T19:45:17.798Z,47.47
2019-02-15T19:47:46.545Z,47.45
2019-02-15T19:50:16.344Z,47.47
2019-02-15T19:52:48.598Z,47.51
2019-02-15T19:55:17.523Z,47.50
2019-02-15T19:57:46.348Z,47.53
2019-02-15T20:00:22.854Z,47.52
2019-02-15T20:02:53.686Z,47.55
2019-02-15T20:05:22.554Z,47.45
2019-02-15T20:07:54.345Z,47.43
2019-02-15T20:10:26.613Z,47.46
2019-02-15T20:12:55.429Z,47.55
2019-02-15T20:15:24.665Z,47.52
2019-02-15T20:17:53.389Z,47.45
2019-02-15T20:20:25.809Z,47.39
2019-02-15T20:22:55.187Z,47.42
2019-02-15T20:25:24.112Z,47.43
2019-02-15T20:27:52.929Z,47.43
2019-02-15T20:30:21.790Z,47.42
2019-02-15T20:32:50.529Z,47.39
2019-02-15T20:35:26.460Z,47.39
2019-02-15T20:37:55.294Z,47.38
2019-02-15T20:40:24.074Z,47.57
2019-02-15T20:42:57.060Z,47.61
2019-02-15T20:45:22.501Z,47.62
2019-02-15T20:47:54.347Z,47.67
2019-02-15T20:50:25.977Z,47.65
2019-02-15T20:52:54.797Z,47.48
2019-02-15T20:55:23.572Z,47.41
2019-02-15T20:57:52.317Z,47.39
2019-02-15T21:00:23.117Z,47.50
2019-02-15T21:02:51.874Z,47.46
2019-02-15T21:05:21.057Z,47.86
2019-02-15T21:07:49.877Z,47.96
2019-02-15T21:10:18.673Z,47.76
2019-02-15T21:12:47.851Z,47.60
2019-02-15T21:15:19.757Z,47.51
2019-02-15T21:17:48.767Z,47.75
2019-02-15T21:20:17.567Z,47.87
2019-02-15T21:22:46.344Z,47.89
2019-02-15T21:25:15.292Z,47.87
2019-02-15T21:27:44.059Z,47.77
2019-02-15T21:30:16.029Z,47.64
2019-02-15T21:32:44.893Z,47.69
2019-02-15T21:35:13.733Z,47.86
2019-02-15T21:37:42.490Z,47.83
2019-02-15T21:40:13.400Z,48.25
2019-02-15T21:42:44.374Z,48.23
2019-02-15T21:45:15.691Z,48.09
2019-02-15T21:47:44.492Z,48.30
2019-02-15T21:50:17.169Z,48.02
2019-02-15T21:52:44.791Z,48.26
2019-02-15T21:55:17.717Z,48.28
2019-02-15T21:57:48.711Z,48.10
2019-02-15T22:00:18.513Z,48.23
2019-02-15T22:02:47.287Z,48.22
2019-02-15T22:05:20.301Z,48.11
2019-02-15T22:07:49.110Z,48.36
2019-02-15T22:10:20.665Z,48.70
2019-02-15T22:12:49.439Z,48.80
2019-02-15T22:15:18.262Z,48.63
2019-02-15T22:17:49.293Z,48.59
2019-02-15T22:20:26.307Z,48.35
2019-02-15T22:22:48.692Z,48.28
2019-02-15T22:25:17.429Z,48.80
2019-02-15T22:27:46.208Z,48.59
2019-02-15T22:30:24.547Z,48.45
2019-02-15T22:32:53.309Z,48.94
2019-02-15T22:35:27.661Z,48.87
2019-02-15T22:37:56.503Z,49.00
2019-02-15T22:40:36.153Z,48.80
2019-02-15T22:43:08.156Z,48.60
2019-02-15T22:45:36.892Z,48.77
2019-02-15T22:48:05.663Z,48.91
2019-02-15T22:50:36.326Z,48.90
2019-02-15T22:53:05.042Z,49.18
2019-02-15T22:55:33.786Z,49.25
2019-02-15T22:58:04.574Z,49.16
2019-02-15T23:00:56.479Z,49.42
2019-02-15T23:03:26.515Z,49.10
2019-02-15T23:05:55.444Z,49.32
2019-02-15T23:08:24.251Z,49.21
2019-02-15T23:10:52.992Z,49.26
2019-02-15T23:13:21.773Z,49.03
2019-02-15T23:15:50.510Z,49.07
2019-02-15T23:18:19.326Z,49.25
2019-02-15T23:20:48.140Z,49.28
2019-02-15T23:23:17.115Z,49.26
2019-02-15T23:25:45.930Z,49.20
2019-02-15T23:28:14.766Z,49.16
2019-02-15T23:30:43.573Z,49.17
2019-02-15T23:33:12.343Z,49.36
2019-02-15T23:35:41.104Z,49.44
2019-02-15T23:38:09.939Z,49.38
2019-02-15T23:40:38.721Z,48.97
2019-02-15T23:43:07.635Z,49.23
2019-02-15T23:45:36.533Z,49.18
2019-02-15T23:48:05.459Z,49.32
2019-02-15T23:50:34.214Z,49.33
2019-02-15T23:53:02.988Z,49.39
2019-02-15T23:55:31.729Z,49.20
2019-02-15T23:58:00.505Z,49.22
